createdAt,value
2023-03-19T00:00:47.482Z,100411.63
2023-03-19T00:03:16.628Z,100412.31
2023-03-19T00:05:54.064Z,100405.41
2023-03-19T00:08:22.999Z,100404.34
2023-03-19T00:10:51.804Z,100412.16
2023-03-19T00:13:21.038Z,100405.94
2023-03-19T00:15:50.058Z,100407.81
2023-03-19T00:18:18.973Z,100405.25
2023-03-19T00:20:47.814Z,100400.09
2023-03-19T00:23:18.118Z,100392.97
2023-03-19T00:25:46.695Z,100394.66
2023-03-19T00:28:15.564Z,100400.63
2023-03-19T00:30:45.741Z,100393.59
2023-03-19T00:33:14.984Z,100399.94
2023-03-19T00:35:43.825Z,100401.94
2023-03-19T00:38:12.689Z,100407.06
2023-03-19T00:40:42.681Z,100394.50
2023-03-19T00:43:11.631Z,100396.81
2023-03-19T00:45:41.890Z,100399.75
2023-03-19T00:48:10.542Z,100388.13
2023-03-19T00:50:39.436Z,100394.13
2023-03-19T00:53:08.372Z,100390.88
2023-03-19T00:55:37.663Z,100394.25
2023-03-19T00:58:08.354Z,100391.25
2023-03-19T01:00:38.303Z,100390.66
2023-03-19T01:03:07.806Z,100396.97
2023-03-19T01:08:05.951Z,100395.56
2023-03-19T01:10:35.719Z,100390.34
2023-03-19T01:13:08.517Z,100397.06
2023-03-19T01:15:38.030Z,100390.94
2023-03-19T01:18:07.741Z,100387.72
2023-03-19T01:20:37.325Z,100393.94
2023-03-19T01:23:07.252Z,100394.19
2023-03-19T01:25:36.420Z,100395.38
2023-03-19T01:28:08.865Z,100403.63
2023-03-19T01:30:41.195Z,100406.28
2023-03-19T01:33:10.133Z,100399.31
2023-03-19T01:35:44.568Z,100411.03
2023-03-19T01:38:13.604Z,100405.81
2023-03-19T01:40:46.107Z,100418.84
2023-03-19T01:43:19.752Z,100412.75
2023-03-19T01:45:54.380Z,100407.81
2023-03-19T01:48:47.730Z,100406.75
2023-03-19T01:51:22.084Z,100404.25
2023-03-19T01:54:08.039Z,100399.84
2023-03-19T01:56:52.587Z,100405.19
2023-03-19T01:59:54.669Z,100405.53
2023-03-19T02:02:52.452Z,100399.44
2023-03-19T02:05:42.938Z,100406.81
2023-03-19T02:08:16.298Z,100404.94
2023-03-19T02:10:46.607Z,100396.06
2023-03-19T02:13:15.787Z,100391.66
2023-03-19T02:15:46.406Z,100397.75
2023-03-19T02:18:16.285Z,100392.72
2023-03-19T02:20:52.046Z,100392.81
2023-03-19T02:23:28.569Z,100384.94
2023-03-19T02:26:07.992Z,100382.94
2023-03-19T02:28:40.027Z,100375.03
2023-03-19T02:31:10.184Z,100386.00
2023-03-19T02:33:39.321Z,100386.25
2023-03-19T02:36:12.857Z,100385.91
2023-03-19T02:38:42.864Z,100389.88
2023-03-19T02:41:13.371Z,100399.56
2023-03-19T02:43:42.716Z,100398.69
2023-03-19T02:46:13.804Z,100400.34
2023-03-19T02:48:44.016Z,100398.72
2023-03-19T02:51:13.616Z,100406.59
2023-03-19T02:53:42.585Z,100404.06
2023-03-19T02:56:13.066Z,100402.53
2023-03-19T02:58:42.089Z,100404.78
2023-03-19T03:01:11.743Z,100408.00
2023-03-19T03:03:40.883Z,100404.28
2023-03-19T03:06:10.234Z,100408.50
2023-03-19T03:08:39.326Z,100412.44
2023-03-19T03:11:08.185Z,100410.88
2023-03-19T03:13:38.194Z,100403.81
2023-03-19T03:16:07.028Z,100400.22
2023-03-19T03:18:36.282Z,100403.38
2023-03-19T03:21:05.280Z,100403.47
2023-03-19T03:23:34.276Z,100399.91
2023-03-19T03:26:04.136Z,100409.34
2023-03-19T03:28:32.697Z,100402.19
2023-03-19T03:31:03.875Z,100392.72
2023-03-19T03:33:33.273Z,100393.19
2023-03-19T03:36:02.310Z,100395.34
2023-03-19T03:38:32.776Z,100386.34
2023-03-19T03:41:01.582Z,100391.75
2023-03-19T03:43:30.291Z,100405.78
2023-03-19T03:46:00.215Z,100394.41
2023-03-19T03:48:30.955Z,100392.00
2023-03-19T03:50:59.934Z,100388.16
2023-03-19T03:53:30.501Z,100387.94
2023-03-19T03:55:59.526Z,100389.72
2023-03-19T03:58:30.181Z,100389.84
2023-03-19T04:00:59.132Z,100400.59
2023-03-19T04:03:28.211Z,100388.16
2023-03-19T04:05:58.695Z,100377.19
2023-03-19T04:08:27.810Z,100390.84
2023-03-19T04:10:56.432Z,100389.69
2023-03-19T04:13:25.677Z,100387.38
2023-03-19T04:15:56.252Z,100391.91
2023-03-19T04:18:26.045Z,100389.88
2023-03-19T04:20:55.077Z,100382.16
2023-03-19T04:23:25.478Z,100381.19
2023-03-19T04:25:54.049Z,100380.75
2023-03-19T04:28:23.353Z,100385.63
2023-03-19T04:30:52.439Z,100377.66
2023-03-19T04:33:22.001Z,100381.47
2023-03-19T04:35:51.144Z,100378.75
2023-03-19T04:38:20.363Z,100385.75
2023-03-19T04:40:50.691Z,100389.63
2023-03-19T04:43:20.808Z,100390.22
2023-03-19T04:45:49.912Z,100387.09
2023-03-19T04:48:19.568Z,100381.88
2023-03-19T04:50:52.277Z,100379.44
2023-03-19T04:53:21.864Z,100380.56
2023-03-19T04:55:52.197Z,100382.66
2023-03-19T04:58:22.686Z,100389.53
2023-03-19T05:01:00.817Z,100398.44
2023-03-19T05:03:50.003Z,100385.69
2023-03-19T05:06:20.105Z,100388.63
2023-03-19T05:08:49.071Z,100397.03
2023-03-19T05:11:21.572Z,100398.00
2023-03-19T05:14:01.490Z,100392.34
2023-03-19T05:16:36.727Z,100400.81
2023-03-19T05:19:05.673Z,100407.41
2023-03-19T05:21:35.212Z,100415.72
2023-03-19T05:24:04.671Z,100404.31
2023-03-19T05:26:38.925Z,100406.38
2023-03-19T05:29:22.213Z,100411.09
2023-03-19T05:32:20.589Z,100405.22
2023-03-19T05:34:49.765Z,100408.25
2023-03-19T05:37:19.553Z,100404.69
2023-03-19T05:39:54.935Z,100398.63
2023-03-19T05:42:25.983Z,100406.09
2023-03-19T05:44:57.929Z,100408.84
2023-03-19T05:47:38.024Z,100404.84
2023-03-19T05:50:07.685Z,100400.88
2023-03-19T05:52:37.002Z,100407.72
2023-03-19T05:55:07.301Z,100393.91
2023-03-19T05:57:49.744Z,100396.22
2023-03-19T06:00:22.707Z,100400.41
2023-03-19T06:02:53.321Z,100404.19
2023-03-19T06:05:52.012Z,100399.22
2023-03-19T06:08:38.410Z,100408.41
2023-03-19T06:11:24.199Z,100402.81
2023-03-19T06:14:09.158Z,100396.94
2023-03-19T06:16:42.011Z,100399.50
2023-03-19T06:19:11.408Z,100403.91
2023-03-19T06:21:40.924Z,100403.44
2023-03-19T06:24:10.275Z,100414.38
2023-03-19T06:26:40.494Z,100412.13
2023-03-19T06:29:17.718Z,100410.63
2023-03-19T06:31:50.161Z,100413.25
2023-03-19T06:34:36.915Z,100418.91
2023-03-19T06:37:05.903Z,100414.66
2023-03-19T06:39:35.081Z,100416.84
2023-03-19T06:42:04.125Z,100415.84
2023-03-19T06:44:34.501Z,100416.47
2023-03-19T06:47:03.218Z,100418.16
2023-03-19T06:49:32.607Z,100421.69
2023-03-19T06:52:01.515Z,100420.47
2023-03-19T06:54:30.700Z,100423.75
2023-03-19T06:57:00.559Z,100419.41
2023-03-19T06:59:29.394Z,100417.78
2023-03-19T07:01:59.759Z,100420.72
2023-03-19T07:04:28.344Z,100421.09
2023-03-19T07:06:57.370Z,100419.56
2023-03-19T07:09:27.440Z,100423.63
2023-03-19T07:11:56.572Z,100430.94
2023-03-19T07:14:25.900Z,100426.94
2023-03-19T07:16:54.490Z,100422.19
2023-03-19T07:19:24.776Z,100427.44
2023-03-19T07:21:53.540Z,100422.72
2023-03-19T07:24:22.516Z,100435.81
2023-03-19T07:26:51.767Z,100426.63
2023-03-19T07:29:20.885Z,100424.81
2023-03-19T07:31:50.003Z,100426.00
2023-03-19T07:34:18.994Z,100415.56
2023-03-19T07:36:49.316Z,100418.16
2023-03-19T07:39:18.011Z,100417.41
2023-03-19T07:41:48.694Z,100422.59
2023-03-19T07:44:18.414Z,100420.25
2023-03-19T07:46:47.269Z,100417.63
2023-03-19T07:49:16.383Z,100426.66
2023-03-19T07:51:45.359Z,100425.94
2023-03-19T07:54:15.709Z,100417.59
2023-03-19T07:56:44.725Z,100414.81
2023-03-19T07:59:13.668Z,100422.19
2023-03-19T08:01:42.114Z,100415.47
2023-03-19T08:04:11.147Z,100411.28
2023-03-19T08:06:40.195Z,100402.59
2023-03-19T08:09:09.480Z,100416.06
2023-03-19T08:11:39.785Z,100408.56
2023-03-19T08:14:08.742Z,100409.06
2023-03-19T08:16:37.284Z,100406.53
2023-03-19T08:19:06.164Z,100404.06
2023-03-19T08:21:35.026Z,100399.50
2023-03-19T08:24:05.108Z,100412.00
2023-03-19T08:26:34.186Z,100409.44
2023-03-19T08:29:04.880Z,100405.19
2023-03-19T08:31:33.483Z,100410.75
2023-03-19T08:34:06.362Z,100404.25
2023-03-19T08:36:35.464Z,100404.56
2023-03-19T08:39:04.649Z,100405.34
2023-03-19T08:41:33.556Z,100409.69
2023-03-19T08:44:02.711Z,100419.16
2023-03-19T08:46:33.676Z,100406.81
2023-03-19T08:49:02.721Z,100404.97
2023-03-19T08:51:32.074Z,100404.03
2023-03-19T08:54:01.015Z,100402.88
2023-03-19T08:56:30.161Z,100399.41
2023-03-19T08:58:59.272Z,100401.88
2023-03-19T09:01:28.008Z,100402.22
2023-03-19T09:04:00.746Z,100398.78
2023-03-19T09:06:29.975Z,100401.34
2023-03-19T09:08:59.036Z,100404.38
2023-03-19T09:11:28.547Z,100400.03
2023-03-19T09:13:57.219Z,100396.81
2023-03-19T09:16:27.054Z,100404.88
2023-03-19T09:18:59.215Z,100390.16
2023-03-19T09:21:31.730Z,100394.84
2023-03-19T09:24:00.910Z,100398.03
2023-03-19T09:26:30.036Z,100394.00
2023-03-19T09:28:59.216Z,100386.63
2023-03-19T09:31:29.648Z,100386.56
2023-03-19T09:33:59.028Z,100381.38
2023-03-19T09:36:28.023Z,100382.16
2023-03-19T09:38:58.493Z,100380.88
2023-03-19T09:41:33.261Z,100379.25
2023-03-19T09:44:03.745Z,100379.75
2023-03-19T09:46:40.373Z,100387.66
2023-03-19T09:49:16.401Z,100381.97
2023-03-19T09:51:48.724Z,100371.09
2023-03-19T09:54:27.500Z,100369.44
2023-03-19T09:56:56.471Z,100374.91
2023-03-19T09:59:27.160Z,100370.56
2023-03-19T10:02:01.346Z,100375.59
2023-03-19T10:04:42.645Z,100378.19
2023-03-19T10:07:23.931Z,100387.00
2023-03-19T10:10:05.591Z,100381.34
2023-03-19T10:12:45.625Z,100382.81
2023-03-19T10:15:23.851Z,100387.69
2023-03-19T10:17:59.358Z,100387.31
2023-03-19T10:20:48.932Z,100375.34
2023-03-19T10:23:33.841Z,100374.66
2023-03-19T10:26:07.453Z,100376.19
2023-03-19T10:28:37.985Z,100379.66
2023-03-19T10:31:20.385Z,100366.59
2023-03-19T10:33:54.746Z,100366.75
2023-03-19T10:36:29.276Z,100359.44
2023-03-19T10:38:58.470Z,100357.88
2023-03-19T10:41:39.879Z,100369.13
2023-03-19T10:44:13.704Z,100382.84
2023-03-19T10:46:43.052Z,100368.03
2023-03-19T10:49:15.470Z,100364.31
2023-03-19T10:51:45.804Z,100354.16
2023-03-19T10:54:22.725Z,100358.25
2023-03-19T10:56:56.474Z,100357.28
2023-03-19T10:59:30.147Z,100361.66
2023-03-19T11:02:00.105Z,100362.28
2023-03-19T11:04:30.043Z,100358.25
2023-03-19T11:07:03.521Z,100368.41
2023-03-19T11:09:35.971Z,100351.13
2023-03-19T11:12:18.825Z,100345.16
2023-03-19T11:14:49.039Z,100339.03
2023-03-19T11:17:22.895Z,100332.19
2023-03-19T11:19:53.689Z,100350.44
2023-03-19T11:22:24.786Z,100328.47
2023-03-19T11:24:55.853Z,100331.13
2023-03-19T11:27:35.068Z,100326.47
2023-03-19T11:30:05.375Z,100331.66
2023-03-19T11:32:50.938Z,100332.44
2023-03-19T11:35:22.626Z,100323.63
2023-03-19T11:37:56.331Z,100321.19
2023-03-19T11:40:43.290Z,100317.94
2023-03-19T11:43:36.926Z,100315.09
2023-03-19T11:46:12.976Z,100318.88
2023-03-19T11:48:54.217Z,100307.84
2023-03-19T11:51:28.073Z,100305.84
2023-03-19T11:54:02.541Z,100308.25
2023-03-19T11:56:36.382Z,100328.81
2023-03-19T11:59:23.981Z,100312.28
2023-03-19T12:02:23.083Z,100311.91
2023-03-19T12:05:05.104Z,100307.09
2023-03-19T12:07:37.582Z,100303.94
2023-03-19T12:10:27.911Z,100305.91
2023-03-19T12:12:58.314Z,100304.38
2023-03-19T12:15:31.710Z,100308.59
2023-03-19T12:18:06.828Z,100312.22
2023-03-19T12:20:48.106Z,100309.00
2023-03-19T12:23:35.741Z,100289.59
2023-03-19T12:26:06.837Z,100284.75
2023-03-19T12:28:39.408Z,100284.06
2023-03-19T12:31:36.867Z,100290.03
2023-03-19T12:34:17.983Z,100285.38
2023-03-19T12:36:52.099Z,100283.78
2023-03-19T12:39:25.350Z,100295.16
2023-03-19T12:41:56.416Z,100285.53
2023-03-19T12:44:29.163Z,100281.38
2023-03-19T12:47:04.512Z,100283.25
2023-03-19T12:49:37.692Z,100288.53
2023-03-19T12:52:14.057Z,100276.03
2023-03-19T12:54:45.917Z,100277.59
2023-03-19T12:57:20.104Z,100266.94
2023-03-19T12:59:54.647Z,100269.16
2023-03-19T13:02:30.502Z,100276.06
2023-03-19T13:05:04.100Z,100276.03
2023-03-19T13:07:37.715Z,100279.09
2023-03-19T13:10:11.847Z,100273.78
2023-03-19T13:12:41.332Z,100266.09
2023-03-19T13:15:13.374Z,100263.03
2023-03-19T13:17:50.943Z,100261.38
2023-03-19T13:20:23.828Z,100255.16
2023-03-19T13:22:56.811Z,100258.13
2023-03-19T13:25:28.739Z,100262.22
2023-03-19T13:27:57.920Z,100259.13
2023-03-19T13:30:27.697Z,100272.28
2023-03-19T13:33:05.777Z,100263.56
2023-03-19T13:35:40.872Z,100248.66
2023-03-19T13:38:19.115Z,100256.75
2023-03-19T13:40:50.348Z,100256.34
2023-03-19T13:43:44.317Z,100254.88
2023-03-19T13:46:39.249Z,100258.13
2023-03-19T13:49:26.790Z,100259.53
2023-03-19T13:51:57.555Z,100249.03
2023-03-19T13:54:40.322Z,100246.13
2023-03-19T13:57:36.282Z,100245.72
2023-03-19T14:00:43.008Z,100253.06
2023-03-19T14:03:21.976Z,100257.56
2023-03-19T14:05:54.134Z,100242.16
2023-03-19T14:08:26.079Z,100240.84
2023-03-19T14:10:57.091Z,100247.25
2023-03-19T14:13:32.133Z,100246.84
2023-03-19T14:16:09.896Z,100238.97
2023-03-19T14:18:42.534Z,100251.53
2023-03-19T14:21:21.815Z,100243.97
2023-03-19T14:23:57.742Z,100244.78
2023-03-19T14:26:30.201Z,100251.16
2023-03-19T14:29:01.205Z,100241.25
2023-03-19T14:31:34.891Z,100244.19
2023-03-19T14:34:08.579Z,100243.81
2023-03-19T14:36:43.544Z,100241.31
2023-03-19T14:39:21.940Z,100232.59
2023-03-19T14:41:53.326Z,100245.50
2023-03-19T14:44:58.214Z,100232.06
2023-03-19T14:47:42.474Z,100242.81
2023-03-19T14:50:41.720Z,100238.72
2023-03-19T14:53:17.217Z,100245.72
2023-03-19T14:55:51.512Z,100242.72
2023-03-19T14:58:21.479Z,100235.91
2023-03-19T15:00:51.769Z,100230.69
2023-03-19T15:03:25.925Z,100214.56
2023-03-19T15:05:58.969Z,100224.09
2023-03-19T15:08:32.330Z,100223.84
2023-03-19T15:11:13.287Z,100225.63
2023-03-19T15:13:52.345Z,100221.97
2023-03-19T15:16:34.468Z,100223.84
2023-03-19T15:19:03.714Z,100219.34
2023-03-19T15:21:32.591Z,100214.41
2023-03-19T15:24:04.792Z,100214.41
2023-03-19T15:26:35.199Z,100217.34
2023-03-19T15:29:04.645Z,100219.44
2023-03-19T15:31:52.868Z,100215.59
2023-03-19T15:34:31.770Z,100211.50
2023-03-19T15:37:02.955Z,100214.56
2023-03-19T15:39:37.642Z,100220.31
2023-03-19T15:42:07.298Z,100217.25
2023-03-19T15:44:38.499Z,100220.88
2023-03-19T15:47:09.877Z,100219.88
2023-03-19T15:49:40.428Z,100226.00
2023-03-19T15:52:12.519Z,100221.50
2023-03-19T15:54:43.386Z,100220.66
2023-03-19T15:57:14.389Z,100222.91
2023-03-19T15:59:43.518Z,100217.41
2023-03-19T16:02:18.184Z,100226.06
2023-03-19T16:05:13.966Z,100229.28
2023-03-19T16:07:43.003Z,100235.81
2023-03-19T16:10:33.697Z,100234.56
2023-03-19T16:13:05.771Z,100241.13
2023-03-19T16:15:38.870Z,100242.06
2023-03-19T16:18:27.355Z,100243.59
2023-03-19T16:21:15.278Z,100247.13
2023-03-19T16:23:45.746Z,100243.22
2023-03-19T16:26:22.635Z,100244.13
2023-03-19T16:28:59.802Z,100250.72
2023-03-19T16:31:32.239Z,100245.75
2023-03-19T16:34:01.599Z,100245.59
2023-03-19T16:36:33.061Z,100244.66
2023-03-19T16:39:21.714Z,100258.59
2023-03-19T16:42:15.906Z,100260.19
2023-03-19T16:44:45.719Z,100261.47
2023-03-19T16:47:16.161Z,100263.03
2023-03-19T16:49:47.763Z,100265.69
2023-03-19T16:52:18.970Z,100271.34
2023-03-19T16:54:48.052Z,100272.63
2023-03-19T16:57:18.965Z,100267.78
2023-03-19T16:59:48.451Z,100269.63
2023-03-19T17:02:18.651Z,100270.13
2023-03-19T17:04:47.668Z,100280.44
2023-03-19T17:07:16.630Z,100276.41
2023-03-19T17:09:45.510Z,100268.03
2023-03-19T17:12:17.618Z,100272.75
2023-03-19T17:14:47.290Z,100281.81
2023-03-19T17:17:19.601Z,100274.81
2023-03-19T17:19:48.899Z,100276.91
2023-03-19T17:22:18.204Z,100275.94
2023-03-19T17:24:47.358Z,100271.69
2023-03-19T17:27:17.681Z,100276.72
2023-03-19T17:29:46.400Z,100275.25
2023-03-19T17:32:18.859Z,100275.75
2023-03-19T17:34:47.430Z,100279.97
2023-03-19T17:37:16.384Z,100272.84
2023-03-19T17:39:46.057Z,100272.38
2023-03-19T17:42:22.679Z,100275.66
2023-03-19T17:44:52.277Z,100275.56
2023-03-19T17:47:21.440Z,100269.06
2023-03-19T17:49:50.120Z,100274.38
2023-03-19T17:52:20.170Z,100270.59
2023-03-19T17:54:49.127Z,100270.25
2023-03-19T17:57:19.495Z,100262.56
2023-03-19T17:59:48.180Z,100267.38
2023-03-19T18:02:25.693Z,100259.44
2023-03-19T18:04:54.777Z,100266.44
2023-03-19T18:07:23.694Z,100264.72
2023-03-19T18:09:52.865Z,100257.13
2023-03-19T18:12:23.203Z,100256.22
2023-03-19T18:14:52.956Z,100252.22
2023-03-19T18:17:21.937Z,100249.59
2023-03-19T18:19:52.379Z,100250.34
2023-03-19T18:22:21.775Z,100249.13
2023-03-19T18:24:50.894Z,100253.38
2023-03-19T18:27:19.829Z,100258.13
2023-03-19T18:29:52.598Z,100258.59
2023-03-19T18:32:26.872Z,100256.97
2023-03-19T18:34:55.466Z,100256.06
2023-03-19T18:37:24.617Z,100251.81
2023-03-19T18:39:53.745Z,100256.16
2023-03-19T18:42:23.643Z,100254.84
2023-03-19T18:44:54.123Z,100253.97
2023-03-19T18:47:22.881Z,100255.13
2023-03-19T18:49:54.093Z,100252.94
2023-03-19T18:52:23.084Z,100255.13
2023-03-19T18:54:52.282Z,100258.66
2023-03-19T18:57:21.353Z,100250.00
2023-03-19T18:59:50.336Z,100258.19
2023-03-19T19:02:32.542Z,100254.25
2023-03-19T19:05:01.527Z,100253.56
2023-03-19T19:07:30.438Z,100256.25
2023-03-19T19:09:59.362Z,100250.41
2023-03-19T19:12:28.457Z,100257.59
2023-03-19T19:14:58.809Z,100260.28
2023-03-19T19:17:29.830Z,100259.94
2023-03-19T19:19:58.986Z,100256.97
2023-03-19T19:22:29.841Z,100256.97
2023-03-19T19:24:58.916Z,100258.34
2023-03-19T19:27:28.011Z,100260.47
2023-03-19T19:29:57.227Z,100254.47
2023-03-19T19:32:29.737Z,100263.47
2023-03-19T19:34:58.360Z,100265.13
2023-03-19T19:37:27.334Z,100262.47
2023-03-19T19:39:56.607Z,100256.97
2023-03-19T19:42:26.133Z,100256.34
2023-03-19T19:44:58.872Z,100262.31
2023-03-19T19:47:29.576Z,100252.84
2023-03-19T19:49:58.225Z,100253.69
2023-03-19T19:52:27.241Z,100256.69
2023-03-19T19:54:56.247Z,100258.16
2023-03-19T19:57:25.554Z,100257.69
2023-03-19T19:59:55.538Z,100258.66
2023-03-19T20:02:25.988Z,100264.13
2023-03-19T20:04:56.092Z,100265.63
2023-03-19T20:07:25.134Z,100264.06
2023-03-19T20:09:54.157Z,100255.03
2023-03-19T20:12:24.606Z,100254.59
2023-03-19T20:14:54.218Z,100264.75
2023-03-19T20:17:23.936Z,100257.47
2023-03-19T20:19:52.830Z,100252.41
2023-03-19T20:22:23.283Z,100252.00
2023-03-19T20:24:52.386Z,100253.97
2023-03-19T20:27:23.567Z,100255.84
2023-03-19T20:29:54.279Z,100258.47
2023-03-19T20:32:27.596Z,100250.13
2023-03-19T20:34:56.315Z,100259.91
2023-03-19T20:37:26.704Z,100254.00
2023-03-19T20:39:55.989Z,100247.84
2023-03-19T20:42:27.125Z,100249.72
2023-03-19T20:44:58.621Z,100251.06
2023-03-19T20:47:27.855Z,100250.69
2023-03-19T20:49:56.436Z,100244.72
2023-03-19T20:52:26.791Z,100239.72
2023-03-19T20:54:55.727Z,100242.34
2023-03-19T20:57:29.406Z,100241.13
2023-03-19T20:59:59.345Z,100236.03
2023-03-19T21:02:28.617Z,100242.06
2023-03-19T21:04:57.592Z,100245.00
2023-03-19T21:07:30.873Z,100242.91
2023-03-19T21:10:00.029Z,100237.13
2023-03-19T21:12:30.969Z,100247.81
2023-03-19T21:15:01.104Z,100242.09
2023-03-19T21:17:30.554Z,100251.78
2023-03-19T21:19:59.432Z,100249.72
2023-03-19T21:22:30.832Z,100248.03
2023-03-19T21:25:08.598Z,100255.69
2023-03-19T21:27:38.523Z,100246.69
2023-03-19T21:30:08.772Z,100249.97
2023-03-19T21:32:38.095Z,100251.16
2023-03-19T21:35:07.694Z,100249.47
2023-03-19T21:37:39.542Z,100244.22
2023-03-19T21:40:15.194Z,100236.53
2023-03-19T21:42:44.329Z,100240.59
2023-03-19T21:45:18.844Z,100238.47
2023-03-19T21:47:47.906Z,100235.72
2023-03-19T21:50:18.475Z,100231.88
2023-03-19T21:52:58.800Z,100234.19
2023-03-19T21:55:29.867Z,100234.16
2023-03-19T21:57:59.277Z,100225.03
2023-03-19T22:00:28.192Z,100229.91
2023-03-19T22:02:57.179Z,100233.41
2023-03-19T22:05:27.745Z,100228.72
2023-03-19T22:07:58.007Z,100231.75
2023-03-19T22:10:29.734Z,100239.06
2023-03-19T22:12:58.700Z,100234.56
2023-03-19T22:15:34.879Z,100231.28
2023-03-19T22:18:05.153Z,100236.31
2023-03-19T22:20:34.400Z,100231.59
2023-03-19T22:23:05.354Z,100230.38
2023-03-19T22:25:35.659Z,100230.31
2023-03-19T22:28:06.183Z,100226.84
2023-03-19T22:30:35.873Z,100226.63
2023-03-19T22:33:07.233Z,100226.16
2023-03-19T22:35:36.692Z,100223.97
2023-03-19T22:38:07.233Z,100230.78
2023-03-19T22:40:36.300Z,100216.63
2023-03-19T22:43:08.503Z,100221.25
2023-03-19T22:45:37.789Z,100219.94
2023-03-19T22:48:07.217Z,100223.16
2023-03-19T22:50:36.160Z,100219.34
2023-03-19T22:53:20.346Z,100218.97
2023-03-19T22:55:48.948Z,100226.66
2023-03-19T22:58:18.008Z,100224.25
2023-03-19T23:00:47.023Z,100222.66
2023-03-19T23:03:21.470Z,100228.63
2023-03-19T23:05:53.476Z,100228.75
2023-03-19T23:08:24.096Z,100228.53
2023-03-19T23:10:53.509Z,100228.31
2023-03-19T23:13:23.373Z,100220.78
2023-03-19T23:15:56.763Z,100227.75
2023-03-19T23:18:30.477Z,100225.72
2023-03-19T23:20:59.424Z,100222.00
2023-03-19T23:23:30.526Z,100223.25
2023-03-19T23:25:59.273Z,100223.47
2023-03-19T23:28:31.852Z,100215.59
2023-03-19T23:31:02.981Z,100216.94
2023-03-19T23:33:31.981Z,100211.28
2023-03-19T23:36:00.839Z,100214.69
2023-03-19T23:38:31.680Z,100207.84
2023-03-19T23:41:01.125Z,100207.13
2023-03-19T23:43:30.994Z,100212.19
2023-03-19T23:46:00.442Z,100199.97
2023-03-19T23:48:34.086Z,100205.41
2023-03-19T23:51:03.928Z,100204.22
2023-03-19T23:53:34.381Z,100200.94
2023-03-19T23:56:04.887Z,100198.31
2023-03-19T23:58:39.978Z,100199.22
